Time;durP1;ratioP1;P1;durP2;ratioP2;P2;SDS_P1;SDS_P2;PMS_P1;PMS_P2;Temp;Humidity;BMP_temperature;BMP_pressure;BME280_temperature;BME280_humidity;BME280_pressure;Samples;Min_cycle;Max_cycle;Signal;HPM_P1;HPM_P2
2022/04/02 14:16:29;;;;;;;9.70;7.13;;;3.60;75.70;;;0.19;79.94;94760.75;5130810;27;20535;-60
2022/04/02 14:19:08;;;;;;;9.20;6.57;;;3.30;76.70;;;0.36;80.11;94760.94;5110540;28;20431;-61
2022/04/02 14:21:39;;;;;;;11.52;6.70;;;3.90;75.50;;;0.53;79.53;94771.63;5101682;28;20036;-58
2022/04/02 14:24:20;;;;;;;7.50;5.70;;;4.50;73.80;;;0.47;79.49;94762.84;5107846;28;20111;-60
2022/04/02 14:27:14;;;;;;;8.30;5.95;;;5.00;72.10;;;0.59;79.80;94778.59;5106057;28;20023;-60
2022/04/02 14:30:04;;;;;;;8.20;6.00;;;5.50;70.60;;;0.72;78.90;94785.47;5107933;28;20032;-60
2022/04/02 14:33:23;;;;;;;6.85;5.47;;;5.80;69.40;;;0.76;78.41;94786.66;5100418;28;20109;-58
2022/04/02 14:36:11;;;;;;;7.65;5.82;;;6.10;68.20;;;0.84;78.65;94783.69;5106422;28;20040;-59
2022/04/02 14:39:07;;;;;;;8.88;5.95;;;6.30;67.40;;;0.84;78.30;94789.75;5102495;28;20026;-60
2022/04/02 14:42:11;;;;;;;6.57;5.35;;;6.50;66.70;;;0.74;78.12;94794.72;5103340;28;20032;-60
2022/04/02 14:45:14;;;;;;;6.82;5.65;;;6.60;66.20;;;0.72;77.93;94793.34;5101886;28;20032;-61
2022/04/02 14:47:48;;;;;;;6.47;5.07;;;6.60;65.60;;;0.66;78.84;94789.81;5104284;28;20446;-60
2022/04/02 14:51:13;;;;;;;5.55;4.40;;;6.60;65.20;;;0.56;79.16;94803.41;5107269;28;20036;-61
2022/04/02 14:54:01;;;;;;;5.72;4.45;;;6.50;64.90;;;0.64;77.37;94799.72;5100880;28;20065;-60
2022/04/02 14:57:12;;;;;;;6.53;5.10;;;6.60;64.80;;;0.62;78.05;94805.16;5104778;28;20032;-60
2022/04/02 15:00:33;;;;;;;7.10;4.93;;;6.50;64.60;;;0.58;78.64;94809.25;5112299;28;20446;-61
2022/04/02 15:03:26;;;;;;;7.15;5.38;;;6.40;64.50;;;0.59;79.35;94810.03;5105485;28;20393;-60
2022/04/02 15:06:14;;;;;;;7.90;5.50;;;6.30;64.60;;;0.44;79.63;94810.44;5110404;28;20020;-56
2022/04/02 15:08:56;;;;;;;7.05;5.30;;;6.30;64.60;;;0.49;80.04;94821.06;5106724;28;20048;-59
2022/04/02 15:11:26;;;;;;;7.70;5.45;;;6.20;64.60;;;0.45;79.77;94820.69;5108098;28;20085;-61
2022/04/02 15:14:01;;;;;;;6.53;5.55;;;6.20;64.60;;;0.45;79.84;94823.31;5111322;28;20109;-61
2022/04/02 15:16:30;;;;;;;10.05;5.55;;;6.20;64.60;;;0.46;80.06;94827.53;5106222;28;20066;-60
2022/04/02 15:19:12;;;;;;;7.03;5.28;;;6.10;64.60;;;0.33;80.68;94827.69;5102885;28;20111;-59
2022/04/02 15:21:39;;;;;;;8.88;5.38;;;6.20;64.50;;;0.39;80.21;94834.66;5106454;28;20106;-61
2022/04/02 15:24:07;;;;;;;6.18;5.32;;;6.10;64.50;;;0.38;79.76;94835.69;5104372;28;20022;-60
2022/04/02 15:26:54;;;;;;;7.30;5.20;;;6.10;64.40;;;0.38;80.13;94837.53;5100087;28;20486;-58
2022/04/02 15:29:47;;;;;;;6.57;5.05;;;6.10;64.40;;;0.30;80.75;94841.22;5081687;28;20028;-61
2022/04/02 15:32:19;;;;;;;7.80;5.63;;;6.20;64.40;;;0.32;81.04;94854.91;5084463;28;20163;-59
2022/04/02 15:34:53;;;;;;;7.82;6.07;;;6.10;64.40;;;0.37;80.55;94852.41;5087160;28;20565;-61
2022/04/02 15:37:43;;;;;;;8.07;6.13;;;6.10;64.40;;;0.25;79.65;94851.53;5101636;28;20046;-61
2022/04/02 15:40:22;;;;;;;7.10;5.88;;;6.20;64.20;;;0.23;79.15;94856.22;5076687;28;20031;-62
2022/04/02 15:42:55;;;;;;;6.82;5.55;;;6.30;63.80;;;0.16;79.79;94863.34;5078839;28;20028;-62
2022/04/02 15:45:31;;;;;;;7.97;5.70;;;6.30;63.60;;;0.29;79.40;94862.41;5083786;28;20036;-62
2022/04/02 15:48:03;;;;;;;8.95;6.32;;;6.40;63.30;;;0.26;79.62;94868.88;5091564;28;20489;-62
2022/04/02 15:50:32;;;;;;;7.90;6.32;;;6.50;63.20;;;0.35;80.22;94878.06;5090701;28;20028;-63
2022/04/02 15:53:09;;;;;;;8.15;6.10;;;6.50;63.00;;;0.41;79.76;94877.19;5075167;28;20032;-64
2022/04/02 15:55:57;;;;;;;7.97;6.00;;;6.60;62.90;;;0.50;79.82;94880.31;5077413;28;20506;-64
2022/04/02 15:58:33;;;;;;;9.38;6.95;;;6.70;62.90;;;0.68;79.18;94879.50;5089045;28;20032;-64
2022/04/02 16:01:07;;;;;;;8.57;7.07;;;6.70;62.90;;;0.79;78.72;94886.63;5073995;28;20032;-63
2022/04/02 16:03:33;;;;;;;8.35;6.18;;;6.80;62.90;;;0.76;79.38;94887.09;5085084;28;20035;-64
2022/04/02 16:06:22;;;;;;;9.60;6.57;;;6.80;62.90;;;0.86;79.39;94884.72;5088589;28;20036;-64
2022/04/02 16:11:26;;;;;;;8.63;6.70;;;6.90;63.00;;;0.98;78.68;94897.91;5091724;28;20028;-64
2022/04/02 16:14:05;;;;;;;8.77;5.82;;;6.80;63.00;;;0.81;79.30;94895.06;5087073;28;20078;-64
2022/04/02 16:16:52;;;;;;;7.68;6.05;;;6.80;62.90;;;0.69;79.36;94902.88;5061595;28;20051;-64
2022/04/02 16:19:44;;;;;;;7.78;5.75;;;6.60;63.00;;;0.65;79.34;94909.56;5069830;28;20028;-64
2022/04/02 16:22:31;;;;;;;7.82;6.18;;;6.40;63.00;;;0.43;80.30;94903.97;5084348;28;20020;-65
2022/04/02 16:25:02;;;;;;;7.75;5.97;;;6.20;63.20;;;0.27;80.66;94917.63;5082239;28;20111;-65
2022/04/02 16:27:31;;;;;;;9.35;6.90;;;6.10;63.30;;;0.29;80.90;94923.47;5084599;28;20068;-64
2022/04/02 16:29:58;;;;;;;9.80;6.53;;;6.00;63.30;;;0.22;81.08;94925.34;5090765;28;20111;-65
2022/04/02 16:32:33;;;;;;;8.18;5.93;;;6.00;63.30;;;0.18;80.84;94921.53;5085047;28;20028;-64
2022/04/02 16:35:32;;;;;;;8.98;6.50;;;5.80;63.50;;;0.01;82.16;94936.22;5074768;28;20029;-65
2022/04/02 16:38:05;;;;;;;6.80;4.95;;;5.70;63.60;;;0.06;81.22;94941.59;5068491;28;20043;-65
2022/04/02 16:40:36;;;;;;;8.55;6.22;;;5.70;63.80;;;0.07;81.14;94940.59;5082925;28;20032;-65
2022/04/02 16:43:08;;;;;;;10.05;6.55;;;5.70;63.80;;;0.12;81.63;94938.91;5094206;28;20420;-65
2022/04/02 16:45:37;;;;;;;9.07;6.93;;;5.70;63.80;;;0.19;81.67;94947.53;5092381;28;20024;-65
2022/04/02 16:48:07;;;;;;;7.53;5.90;;;5.70;63.80;;;0.15;80.76;94951.56;5092351;28;20034;-65
2022/04/02 16:50:36;;;;;;;9.35;6.70;;;5.80;63.80;;;0.10;80.90;94948.03;5072566;28;20029;-65
2022/04/02 16:53:08;;;;;;;8.32;6.38;;;5.80;63.60;;;0.14;81.40;94954.44;5091395;28;20047;-65
2022/04/02 16:55:39;;;;;;;10.10;7.33;;;5.70;63.60;;;0.07;81.10;94954.50;5093390;28;20080;-65
2022/04/02 16:58:05;;;;;;;8.30;6.72;;;5.70;63.70;;;0.10;80.90;94961.13;5072213;28;20063;-65
2022/04/02 17:00:34;;;;;;;9.60;7.32;;;5.70;63.80;;;-0.06;80.92;94965.88;5085841;28;20024;-65
2022/04/02 17:03:03;;;;;;;10.65;7.78;;;5.60;63.90;;;-0.13;81.98;94980.81;5093302;28;20023;-65
2022/04/02 17:05:40;;;;;;;9.05;7.00;;;5.50;63.90;;;-0.04;80.96;94987.38;5092239;28;20506;-65
2022/04/02 17:08:18;;;;;;;8.75;6.40;;;5.50;64.00;;;-0.04;80.97;94986.59;5072372;28;20040;-65
2022/04/02 17:11:04;;;;;;;8.95;6.68;;;5.50;64.00;;;-0.13;81.22;94990.47;5089791;28;20032;-65
2022/04/02 17:13:29;;;;;;;9.48;7.32;;;5.40;63.90;;;-0.21;82.69;95002.03;5092212;28;20461;-65
2022/04/02 17:16:05;;;;;;;10.07;7.70;;;5.40;64.00;;;-0.25;81.84;95000.84;5091823;28;20518;-65
2022/04/02 17:18:33;;;;;;;8.45;6.57;;;5.30;64.00;;;-0.32;82.45;95006.09;5091440;28;20381;-64
2022/04/02 17:21:15;;;;;;;11.13;7.40;;;5.20;64.10;;;-0.32;82.39;95003.47;5091877;28;20066;-64
2022/04/02 17:23:43;;;;;;;8.70;6.50;;;5.10;64.30;;;-0.31;82.51;95012.97;5090920;28;20099;-65
2022/04/02 17:26:32;;;;;;;8.07;5.85;;;5.00;64.50;;;-0.52;82.72;95000.19;5092194;28;20032;-65
2022/04/02 17:28:58;;;;;;;9.18;6.72;;;4.90;64.50;;;-0.53;82.35;95016.91;5091002;28;20103;-65
2022/04/02 17:31:34;;;;;;;8.30;6.55;;;4.80;64.60;;;-0.67;83.13;95016.16;5091575;28;20070;-64
2022/04/02 17:34:20;;;;;;;7.78;6.45;;;4.70;64.70;;;-0.62;82.85;95023.38;5071927;28;20024;-63
2022/04/02 17:37:06;;;;;;;8.65;6.47;;;4.60;64.80;;;-0.73;82.65;95027.44;5087223;28;20390;-63
2022/04/02 17:39:34;;;;;;;8.05;5.90;;;4.50;64.90;;;-0.87;82.58;95023.28;5088635;28;20543;-63
2022/04/02 17:42:11;;;;;;;7.18;5.55;;;4.40;65.00;;;-0.86;83.07;95041.38;5072474;28;20024;-63
2022/04/02 17:44:38;;;;;;;9.48;7.05;;;4.40;65.20;;;-0.89;83.10;95038.38;5089307;28;20454;-62
2022/04/02 17:47:06;;;;;;;8.73;6.20;;;4.20;65.30;;;-0.94;83.37;95044.19;5090039;28;20039;-62
2022/04/02 17:49:40;;;;;;;10.13;7.10;;;4.20;65.20;;;-1.11;84.20;95043.84;5091774;28;20103;-62
2022/04/02 17:52:27;;;;;;;11.55;7.25;;;4.10;65.40;;;-1.05;84.49;95043.03;5070068;28;20414;-62
2022/04/02 17:54:53;;;;;;;9.18;5.75;;;4.00;65.60;;;-1.06;84.76;95059.75;5078067;28;20036;-62
2022/04/02 17:57:25;;;;;;;9.75;6.88;;;4.00;66.00;;;-1.06;84.95;95066.78;5091348;28;20502;-62
2022/04/02 18:00:02;;;;;;;12.70;7.03;;;3.90;66.20;;;-1.05;85.19;95063.94;5070199;28;20109;-62
2022/04/02 18:02:27;;;;;;;12.43;7.53;;;3.90;66.40;;;-1.12;85.16;95075.44;5085252;28;20691;-61
2022/04/02 18:04:57;;;;;;;8.50;6.13;;;3.90;66.60;;;-1.17;85.16;95071.59;5029776;28;20048;-61
2022/04/02 18:07:27;;;;;;;9.35;7.05;;;3.80;66.80;;;-1.13;85.39;95082.44;5017845;28;20040;-62
2022/04/02 18:09:54;;;;;;;10.52;7.22;;;3.80;66.80;;;-1.20;85.02;95085.06;5063498;28;20025;-60
2022/04/02 18:12:22;;;;;;;10.13;6.90;;;3.80;66.90;;;-1.17;84.34;95084.69;5069489;28;20024;-61
2022/04/02 18:14:49;;;;;;;8.10;6.65;;;3.80;66.90;;;-1.23;83.97;95082.88;5061753;28;20051;-61
2022/04/02 18:17:16;;;;;;;12.63;7.40;;;3.70;66.80;;;-1.31;84.53;95098.78;5068318;28;20055;-61
2022/04/02 18:19:45;;;;;;;9.07;7.05;;;3.70;66.90;;;-1.32;84.33;95091.91;5068456;28;20094;-61
2022/04/02 18:22:13;;;;;;;9.88;7.07;;;3.70;66.90;;;-1.41;84.71;95107.03;5061968;28;20024;-60
2022/04/02 18:24:41;;;;;;;10.52;7.38;;;3.70;66.90;;;-1.41;84.68;95106.19;5069016;28;20047;-60
2022/04/02 18:27:07;;;;;;;10.48;7.20;;;3.60;66.90;;;-1.43;84.71;95113.44;5069680;28;20494;-60
2022/04/02 18:29:33;;;;;;;9.18;6.57;;;3.60;66.90;;;-1.47;84.24;95118.28;5071063;28;20120;-60
2022/04/02 18:31:59;;;;;;;11.20;7.82;;;3.50;66.80;;;-1.50;84.67;95115.25;5070752;28;20861;-58
2022/04/02 18:34:25;;;;;;;10.18;7.40;;;3.50;66.90;;;-1.54;84.56;95127.09;5070833;28;20479;-57
2022/04/02 18:36:51;;;;;;;12.52;8.82;;;3.50;66.90;;;-1.52;84.66;95127.72;5071138;28;20031;-60
2022/04/02 18:39:20;;;;;;;10.52;7.57;;;3.40;67.00;;;-1.55;85.26;95131.53;5049730;28;20029;-60
2022/04/02 18:41:46;;;;;;;9.68;6.93;;;3.40;67.10;;;-1.61;85.11;95142.78;5070540;28;20029;-62
2022/04/02 18:44:13;;;;;;;12.02;7.97;;;3.30;67.30;;;-1.59;85.53;95139.97;5069446;28;20135;-61
2022/04/02 18:46:38;;;;;;;10.25;7.30;;;3.30;68.20;;;-1.60;85.87;95135.72;5069566;28;20139;-60
2022/04/02 18:49:10;;;;;;;11.57;8.32;;;3.30;67.60;;;-1.63;85.64;95137.75;5069613;28;20100;-60
2022/04/02 18:51:37;;;;;;;10.68;8.07;;;3.30;67.80;;;-1.66;85.65;95145.16;5069656;28;20020;-59
2022/04/02 18:54:03;;;;;;;12.55;8.70;;;3.20;67.80;;;-1.71;85.98;95137.94;5069075;28;20394;-61
2022/04/02 18:56:29;;;;;;;9.43;6.63;;;3.20;67.80;;;-1.69;85.44;95151.63;5069778;28;20025;-61
2022/04/02 18:58:57;;;;;;;10.93;7.72;;;3.20;67.80;;;-1.75;85.67;95157.63;5070472;28;20031;-61
2022/04/02 19:01:23;;;;;;;10.98;8.32;;;3.20;67.90;;;-1.80;85.92;95157.41;5071787;28;20033;-60
2022/04/02 19:03:49;;;;;;;10.93;7.68;;;3.20;68.00;;;-1.74;86.22;95161.84;5053697;28;20033;-60
2022/04/02 19:06:18;;;;;;;11.63;8.07;;;3.20;68.10;;;-1.71;86.50;95165.88;5074633;28;20029;-60
2022/04/02 19:08:43;;;;;;;12.60;8.05;;;3.20;68.10;;;-1.74;86.22;95163.66;5074494;28;20058;-60
2022/04/02 19:11:12;;;;;;;11.73;8.07;;;3.20;68.20;;;-1.68;86.28;95173.31;5073267;28;20075;-59
2022/04/02 19:13:38;;;;;;;9.70;6.63;;;3.20;68.20;;;-1.67;86.33;95174.91;5056662;28;20044;-60
2022/04/02 19:16:05;;;;;;;11.80;8.60;;;3.20;68.20;;;-1.69;86.26;95185.56;5073515;28;20048;-60
2022/04/02 19:18:31;;;;;;;11.18;8.20;;;3.20;68.30;;;-1.68;86.38;95189.78;5074205;28;20044;-61
2022/04/02 19:20:57;;;;;;;11.93;8.50;;;3.20;68.30;;;-1.66;86.59;95193.00;5072883;28;20020;-60
2022/04/02 19:23:22;;;;;;;11.07;7.85;;;3.20;68.30;;;-1.73;86.23;95191.38;5073141;28;20035;-58
2022/04/02 19:25:48;;;;;;;9.15;6.88;;;3.30;68.30;;;-1.80;85.21;95191.34;5072889;28;20033;-58
2022/04/02 19:28:15;;;;;;;11.15;8.13;;;3.20;68.20;;;-1.85;85.83;95198.97;5074008;28;20025;-60
2022/04/02 19:30:47;;;;;;;12.45;8.18;;;3.30;68.20;;;-1.82;85.18;95201.19;5073822;28;20060;-60
2022/04/02 19:33:13;;;;;;;11.63;8.32;;;3.20;68.10;;;-1.83;85.76;95204.81;5072836;28;20032;-59
2022/04/02 19:35:45;;;;;;;10.07;7.90;;;3.20;68.10;;;-1.82;85.83;95203.78;5056079;28;20116;-59
2022/04/02 19:38:11;;;;;;;11.65;7.70;;;3.20;68.90;;;-1.87;85.51;95201.78;5078001;28;20450;-58
2022/04/02 19:40:40;;;;;;;13.38;9.18;;;3.20;68.10;;;-1.92;86.20;95205.97;5076434;28;20052;-59
2022/04/02 19:43:06;;;;;;;11.70;8.38;;;3.20;68.10;;;-1.92;85.99;95213.81;5074817;28;20032;-58
2022/04/02 19:45:33;;;;;;;11.38;8.63;;;3.10;68.10;;;-1.92;86.10;95213.81;5073243;28;20028;-59
2022/04/02 19:48:03;;;;;;;13.85;9.60;;;3.10;68.10;;;-1.98;86.24;95220.59;5052455;28;20056;-58
2022/04/02 19:50:29;;;;;;;11.90;8.63;;;3.10;68.20;;;-1.97;86.28;95217.00;5060309;28;20044;-58
2022/04/02 19:52:57;;;;;;;12.02;8.40;;;3.10;68.20;;;-1.98;86.22;95214.59;5070314;28;20029;-61
2022/04/02 19:55:33;;;;;;;13.00;9.38;;;3.10;68.30;;;-2.03;86.54;95220.41;5052275;28;20025;-59
2022/04/02 19:58:05;;;;;;;13.85;9.05;;;3.10;68.30;;;-1.98;86.73;95220.59;5072849;28;20031;-61
2022/04/02 20:00:35;;;;;;;15.02;10.02;;;3.00;68.40;;;-2.01;87.01;95221.00;5073505;28;20124;-58
2022/04/02 20:03:01;;;;;;;11.95;8.95;;;3.00;68.60;;;-2.03;86.74;95230.03;5072186;28;20050;-59
2022/04/02 20:05:30;;;;;;;14.60;9.15;;;3.00;68.50;;;-2.02;87.16;95227.22;5072287;28;20434;-60
2022/04/02 20:07:59;;;;;;;14.02;9.75;;;3.00;68.60;;;-1.95;86.97;95230.66;5052076;28;20368;-56
2022/04/02 20:10:32;;;;;;;13.77;9.07;;;3.00;68.60;;;-1.99;86.72;95237.28;5069033;28;20039;-60
2022/04/02 20:13:04;;;;;;;15.32;10.38;;;3.00;68.70;;;-1.97;87.15;95239.72;5083294;28;20032;-59
2022/04/02 20:15:30;;;;;;;14.18;9.25;;;3.00;68.70;;;-1.96;86.66;95231.66;5072499;28;20044;-61
2022/04/02 20:17:56;;;;;;;16.35;9.50;;;3.00;68.70;;;-1.89;86.82;95236.91;5051758;28;20075;-59
2022/04/02 20:20:22;;;;;;;13.63;9.40;;;3.10;68.60;;;-1.91;86.77;95234.50;5074600;28;20060;-58
2022/04/02 20:22:49;;;;;;;16.05;11.00;;;3.00;68.60;;;-1.91;86.67;95249.38;5072849;28;20508;-59
2022/04/02 20:25:17;;;;;;;15.27;11.23;;;3.10;68.70;;;-1.96;86.76;95246.53;5068432;28;20124;-55
2022/04/02 20:27:44;;;;;;;15.40;10.50;;;3.10;68.60;;;-1.90;86.74;95240.53;5063954;28;20408;-59
2022/04/02 20:30:13;;;;;;;15.13;9.93;;;3.10;69.40;;;-1.90;86.10;95235.31;5062934;28;20040;-59
2022/04/02 20:32:42;;;;;;;12.90;9.13;;;3.10;68.60;;;-1.94;86.07;95241.94;5067777;28;20448;-60
2022/04/02 20:35:09;;;;;;;14.52;9.50;;;3.10;68.60;;;-1.95;86.04;95233.28;5068441;28;20059;-59
2022/04/02 20:37:35;;;;;;;13.98;10.02;;;3.10;68.60;;;-1.99;85.29;95250.34;5052442;28;20080;-61
2022/04/02 20:40:01;;;;;;;11.38;7.68;;;3.10;68.60;;;-1.98;85.25;95245.91;5060624;28;20048;-59
2022/04/02 20:42:27;;;;;;;13.38;9.13;;;3.10;68.50;;;-1.97;85.46;95247.53;5069250;28;20082;-58
2022/04/02 20:44:52;;;;;;;14.45;10.60;;;3.10;68.50;;;-1.99;85.56;95252.16;5070132;28;20123;-56
2022/04/02 20:47:18;;;;;;;12.73;8.63;;;3.10;68.40;;;-1.96;85.71;95254.38;5050015;28;20037;-57
2022/04/02 20:49:44;;;;;;;12.40;8.93;;;3.10;68.40;;;-1.95;85.79;95258.56;5063236;28;20044;-56
2022/04/02 20:52:10;;;;;;;14.88;11.20;;;3.10;68.40;;;-1.98;85.64;95259.75;5084673;28;20060;-60
2022/04/02 20:54:35;;;;;;;12.98;9.63;;;3.10;68.40;;;-1.97;85.46;95258.78;5071082;28;20028;-58
2022/04/02 20:57:01;;;;;;;15.30;10.32;;;3.10;68.40;;;-1.97;85.70;95260.59;5071527;28;20123;-58
2022/04/02 20:59:42;;;;;;;14.52;10.43;;;3.00;68.30;;;-1.95;85.16;95267.22;5071435;28;20020;-55
2022/04/02 21:02:08;;;;;;;13.70;9.40;;;3.00;68.30;;;-1.99;85.31;95266.00;5070947;28;20089;-59
2022/04/02 21:04:34;;;;;;;17.10;10.88;;;3.00;68.40;;;-1.97;85.16;95268.44;5072062;28;20119;-57
2022/04/02 21:07:00;;;;;;;15.43;10.93;;;3.00;68.40;;;-2.02;85.50;95276.03;5071267;28;20492;-55
2022/04/02 21:09:33;;;;;;;16.27;11.13;;;2.90;68.30;;;-2.08;85.39;95274.97;5071116;28;20028;-60
2022/04/02 21:12:05;;;;;;;16.50;10.68;;;2.90;68.30;;;-2.14;85.21;95273.16;5072600;28;20562;-56
2022/04/02 21:14:37;;;;;;;15.20;10.02;;;2.90;68.30;;;-2.20;85.37;95279.13;5070271;28;20068;-55
2022/04/02 21:17:10;;;;;;;12.50;7.05;;;2.80;68.30;;;-2.24;85.91;95276.09;5072183;28;20028;-54
2022/04/02 21:19:35;;;;;;;18.15;10.70;;;2.80;68.40;;;-2.15;85.99;95281.97;5050871;28;20361;-56
2022/04/02 21:22:08;;;;;;;17.10;11.63;;;2.70;68.50;;;-2.19;86.36;95281.56;5058593;28;20040;-53
2022/04/02 21:24:33;;;;;;;15.20;9.97;;;2.80;68.70;;;-2.15;86.46;95288.00;5069775;28;20601;-52
2022/04/02 21:26:59;;;;;;;16.30;11.23;;;2.70;68.60;;;-2.14;86.37;95283.59;5070493;28;20350;-55
2022/04/02 21:29:31;;;;;;;18.27;10.55;;;2.80;68.80;;;-2.15;86.42;95279.38;5071646;28;20040;-50
2022/04/02 21:32:04;;;;;;;17.27;11.48;;;2.80;68.80;;;-2.13;86.34;95282.56;5071817;28;20029;-51
2022/04/02 21:34:32;;;;;;;17.15;11.68;;;2.80;68.80;;;-2.16;86.21;95288.22;5058293;28;20547;-55
2022/04/02 21:36:59;;;;;;;15.27;10.68;;;2.80;68.80;;;-2.10;86.07;95287.41;5071756;28;20033;-52
2022/04/02 21:39:37;;;;;;;16.35;11.25;;;2.80;68.90;;;-2.09;86.05;95289.03;5071576;28;20033;-54
2022/04/02 21:42:07;;;;;;;14.95;10.77;;;2.80;68.80;;;-2.10;85.89;95292.63;5071730;28;20112;-52
2022/04/02 21:44:36;;;;;;;15.15;10.50;;;2.80;68.80;;;-2.12;86.04;95292.84;5071272;28;20060;-56
2022/04/02 21:47:05;;;;;;;16.17;10.77;;;2.80;68.70;;;-2.08;86.16;95292.44;5071792;28;20036;-54
2022/04/02 21:49:37;;;;;;;15.98;11.27;;;2.80;68.80;;;-2.19;86.44;95291.19;5071696;28;20542;-56
2022/04/02 21:52:08;;;;;;;15.63;9.97;;;2.80;68.80;;;-2.14;86.60;95294.81;5053552;28;20594;-51
2022/04/02 21:54:33;;;;;;;17.05;10.63;;;2.80;68.80;;;-2.16;86.39;95291.63;5071137;28;20743;-55
2022/04/02 21:57:03;;;;;;;15.48;11.45;;;2.80;68.80;;;-2.19;86.34;95294.63;5070111;28;20020;-50
2022/04/02 21:59:52;;;;;;;13.77;9.23;;;2.80;68.80;;;-2.27;85.74;95279.09;5070268;28;20021;-52
2022/04/02 22:02:19;;;;;;;13.95;9.77;;;2.80;68.70;;;-2.23;85.67;95295.97;5052621;28;20029;-53
2022/04/02 22:04:51;;;;;;;12.60;9.45;;;2.70;68.60;;;-2.33;85.88;95293.72;5050975;28;20028;-55
2022/04/02 22:07:20;;;;;;;15.65;10.18;;;2.70;68.60;;;-2.31;85.97;95303.16;5082842;28;20033;-53
2022/04/02 22:09:46;;;;;;;15.48;10.02;;;2.60;68.60;;;-2.38;86.38;95308.34;5051452;28;20037;-55
2022/04/02 22:12:21;;;;;;;16.25;11.25;;;2.50;68.50;;;-2.43;86.50;95308.09;5066734;28;20078;-54
2022/04/02 22:14:47;;;;;;;16.60;9.82;;;2.50;68.60;;;-2.47;86.35;95297.25;5050372;28;20088;-56
2022/04/02 22:17:12;;;;;;;14.65;9.27;;;2.50;68.80;;;-2.45;86.43;95313.50;5083635;28;20048;-55
2022/04/02 22:19:38;;;;;;;15.23;10.25;;;2.40;68.90;;;-2.52;86.75;95304.81;5083458;28;20059;-53
2022/04/02 22:22:17;;;;;;;14.60;10.27;;;2.40;68.90;;;-2.50;86.59;95313.28;5083536;28;20029;-55
2022/04/02 22:24:52;;;;;;;14.77;9.82;;;2.40;69.10;;;-2.51;86.77;95314.25;5050958;28;20033;-55
2022/04/02 22:27:21;;;;;;;16.95;10.45;;;2.40;69.10;;;-2.49;86.99;95321.91;5062307;28;20021;-54
2022/04/02 22:29:49;;;;;;;16.80;10.77;;;2.30;69.10;;;-2.56;87.21;95317.44;5086764;28;20020;-55
2022/04/02 22:32:15;;;;;;;15.32;10.45;;;2.30;69.20;;;-2.48;86.94;95318.28;5049812;28;20369;-54
2022/04/02 22:34:41;;;;;;;17.33;12.13;;;2.40;69.30;;;-2.49;87.36;95327.91;5051338;28;20170;-56
2022/04/02 22:37:06;;;;;;;16.25;10.32;;;2.40;69.40;;;-2.48;87.32;95324.31;5073501;28;20024;-54
2022/04/02 22:39:32;;;;;;;17.15;11.13;;;2.40;69.50;;;-2.43;86.75;95324.56;5074041;28;20029;-56
2022/04/02 22:42:01;;;;;;;18.50;10.73;;;2.40;69.50;;;-2.49;86.67;95335.75;5075020;28;20032;-52
2022/04/02 22:44:33;;;;;;;15.88;10.60;;;2.50;69.40;;;-2.52;86.67;95327.50;5053363;28;20048;-53
2022/04/02 22:47:05;;;;;;;14.23;9.65;;;2.40;69.30;;;-2.47;86.59;95336.38;5063895;28;20032;-54
2022/04/02 22:49:40;;;;;;;16.75;10.02;;;2.40;69.30;;;-2.47;86.61;95335.56;5061269;28;20039;-53
2022/04/02 22:52:21;;;;;;;17.00;11.13;;;2.40;70.10;;;-2.52;86.49;95337.94;5074837;28;20040;-53
2022/04/02 22:54:53;;;;;;;16.05;10.43;;;2.40;69.30;;;-2.49;86.60;95327.13;5074426;28;20031;-51
2022/04/02 22:57:28;;;;;;;14.10;9.88;;;2.40;69.30;;;-2.59;86.16;95319.63;5074829;28;20471;-53
2022/04/02 22:59:54;;;;;;;14.95;11.10;;;2.40;69.30;;;-2.55;86.21;95339.09;5073534;28;20037;-54
2022/04/02 23:02:28;;;;;;;15.75;10.05;;;2.30;69.30;;;-2.55;86.42;95344.31;5074719;28;20025;-52
2022/04/02 23:04:54;;;;;;;19.45;11.50;;;2.30;69.30;;;-2.60;86.44;95337.06;5074281;28;20031;-53
2022/04/02 23:07:23;;;;;;;16.00;10.20;;;2.30;69.30;;;-2.52;86.58;95332.72;5073513;28;20116;-53
2022/04/02 23:09:54;;;;;;;19.80;11.40;;;2.30;69.40;;;-2.50;86.58;95343.78;5074682;28;20112;-50
2022/04/02 23:12:24;;;;;;;18.08;11.70;;;2.30;69.40;;;-2.52;86.90;95332.72;5074813;28;20487;-56
2022/04/02 23:14:49;;;;;;;17.00;11.25;;;2.30;69.50;;;-2.58;86.92;95337.69;5072467;28;20052;-51
2022/04/02 23:17:20;;;;;;;17.52;11.05;;;2.30;69.50;;;-2.53;86.72;95341.53;5074253;28;20020;-53
2022/04/02 23:19:52;;;;;;;17.63;11.60;;;2.30;69.40;;;-2.56;86.68;95340.91;5074480;28;20456;-50
2022/04/02 23:22:21;;;;;;;18.25;12.60;;;2.30;69.40;;;-2.61;86.55;95337.25;5073079;28;20035;-51
2022/04/02 23:24:47;;;;;;;17.67;11.65;;;2.30;69.40;;;-2.68;86.56;95341.63;5073882;28;20032;-52
2022/04/02 23:27:16;;;;;;;18.95;12.77;;;2.20;69.70;;;-2.70;87.17;95347.00;5073006;28;20071;-48
2022/04/02 23:29:48;;;;;;;20.65;12.43;;;2.20;69.30;;;-2.70;87.16;95351.41;5074129;28;20025;-50
2022/04/02 23:32:14;;;;;;;17.85;11.65;;;2.10;69.20;;;-2.74;86.96;95343.16;5072895;28;20048;-48
2022/04/02 23:34:40;;;;;;;20.25;12.77;;;2.00;69.20;;;-2.76;87.15;95341.72;5071883;28;20063;-51
2022/04/02 23:37:06;;;;;;;19.38;12.40;;;2.00;69.40;;;-2.78;87.17;95349.75;5072874;28;20365;-55
2022/04/02 23:39:32;;;;;;;19.10;12.13;;;2.00;69.50;;;-2.78;87.60;95343.75;5074149;28;20526;-49
2022/04/02 23:42:01;;;;;;;19.45;12.48;;;1.90;69.50;;;-2.78;87.57;95344.53;5073908;28;20070;-51
2022/04/02 23:44:30;;;;;;;21.52;12.63;;;2.00;69.70;;;-2.75;87.52;95345.97;5072208;28;20020;-49
2022/04/02 23:46:56;;;;;;;19.63;12.05;;;2.00;69.70;;;-2.72;87.88;95353.41;5072176;28;20029;-49
2022/04/02 23:49:31;;;;;;;17.58;11.60;;;2.00;69.80;;;-2.72;87.84;95354.22;5073768;28;20070;-51
2022/04/02 23:52:03;;;;;;;20.73;13.02;;;2.00;69.80;;;-2.66;88.01;95350.06;5073445;28;20103;-52
2022/04/02 23:54:32;;;;;;;17.33;11.10;;;2.10;70.00;;;-2.63;87.79;95350.50;5073363;28;20074;-49
2022/04/02 23:57:00;;;;;;;19.15;12.40;;;2.10;70.10;;;-2.60;88.03;95352.72;5073626;28;20029;-49
2022/04/02 23:59:29;;;;;;;19.30;12.13;;;2.20;70.10;;;-2.58;87.72;95352.53;5073677;28;20490;-49
